Terminal Aerodrome Forecast
Issued by NWS

Home | Current Version | Previous Version | Text Only | Print | Product List | Glossary On
Versions: 1 2 3 4 5 6 7 8 9 10 11 12 13 14 15 16 17
492
FTUS46 KSEW 281431 AAB
TAFHQM
TAF AMD
KHQM 281431Z 2815/2912 19014KT 2SM -RA BR SCT008 BKN027 OVC035
     FM281900 22012KT 5SM -SHRA BKN025 BKN050
     FM282000 24014KT P6SM -SHRA BKN030 BKN050
     FM290200 26012KT P6SM OVC025=

USA.gov is the U.S. government's official web portal to all federal, state and local government web resources and services.